sensor_id;sensor_type;location;lat;lon;timestamp;P1;durP1;ratioP1;P2;durP2;ratioP2
47153;SDS011;32907;41.412;2.164;2023-05-07T00:02:04;6.45;;;3.60;;
47153;SDS011;32907;41.412;2.164;2023-05-07T00:04:35;5.57;;;3.47;;
47153;SDS011;32907;41.412;2.164;2023-05-07T00:07:05;5.28;;;3.17;;
47153;SDS011;32907;41.412;2.164;2023-05-07T00:09:34;6.05;;;3.55;;
47153;SDS011;32907;41.412;2.164;2023-05-07T00:12:05;6.05;;;3.28;;
47153;SDS011;32907;41.412;2.164;2023-05-07T00:14:33;4.68;;;2.45;;
47153;SDS011;32907;41.412;2.164;2023-05-07T00:17:02;4.30;;;3.20;;
47153;SDS011;32907;41.412;2.164;2023-05-07T00:19:32;6.70;;;3.50;;
47153;SDS011;32907;41.412;2.164;2023-05-07T00:22:00;6.80;;;3.17;;
47153;SDS011;32907;41.412;2.164;2023-05-07T00:24:29;4.13;;;2.80;;
47153;SDS011;32907;41.412;2.164;2023-05-07T00:26:57;5.00;;;2.90;;
47153;SDS011;32907;41.412;2.164;2023-05-07T00:29:25;4.47;;;2.80;;
47153;SDS011;32907;41.412;2.164;2023-05-07T00:31:54;5.63;;;3.50;;
47153;SDS011;32907;41.412;2.164;2023-05-07T00:34:29;4.50;;;2.85;;
47153;SDS011;32907;41.412;2.164;2023-05-07T00:36:57;3.85;;;2.88;;
47153;SDS011;32907;41.412;2.164;2023-05-07T00:39:33;3.95;;;2.63;;
47153;SDS011;32907;41.412;2.164;2023-05-07T00:42:01;4.32;;;3.08;;
47153;SDS011;32907;41.412;2.164;2023-05-07T00:44:32;4.38;;;3.05;;
47153;SDS011;32907;41.412;2.164;2023-05-07T00:47:07;4.40;;;2.83;;
47153;SDS011;32907;41.412;2.164;2023-05-07T00:49:41;4.80;;;3.25;;
47153;SDS011;32907;41.412;2.164;2023-05-07T00:52:14;5.03;;;3.28;;
47153;SDS011;32907;41.412;2.164;2023-05-07T00:54:47;4.40;;;2.88;;
47153;SDS011;32907;41.412;2.164;2023-05-07T00:57:16;5.10;;;3.30;;
47153;SDS011;32907;41.412;2.164;2023-05-07T00:59:45;5.15;;;3.50;;
47153;SDS011;32907;41.412;2.164;2023-05-07T01:02:13;4.03;;;3.03;;
47153;SDS011;32907;41.412;2.164;2023-05-07T01:04:41;5.22;;;3.13;;
47153;SDS011;32907;41.412;2.164;2023-05-07T01:07:12;4.35;;;3.00;;
47153;SDS011;32907;41.412;2.164;2023-05-07T01:09:42;4.82;;;3.28;;
47153;SDS011;32907;41.412;2.164;2023-05-07T01:12:14;3.85;;;3.30;;
47153;SDS011;32907;41.412;2.164;2023-05-07T01:14:43;4.60;;;3.13;;
47153;SDS011;32907;41.412;2.164;2023-05-07T01:17:11;6.22;;;3.53;;
47153;SDS011;32907;41.412;2.164;2023-05-07T01:19:40;2.97;;;2.53;;
47153;SDS011;32907;41.412;2.164;2023-05-07T01:22:09;5.75;;;3.05;;
47153;SDS011;32907;41.412;2.164;2023-05-07T01:24:48;4.35;;;3.20;;
47153;SDS011;32907;41.412;2.164;2023-05-07T01:27:17;5.57;;;3.13;;
47153;SDS011;32907;41.412;2.164;2023-05-07T01:29:47;4.28;;;3.33;;
47153;SDS011;32907;41.412;2.164;2023-05-07T01:32:23;6.15;;;3.58;;
47153;SDS011;32907;41.412;2.164;2023-05-07T01:34:55;6.78;;;4.53;;
47153;SDS011;32907;41.412;2.164;2023-05-07T01:37:25;6.22;;;4.43;;
47153;SDS011;32907;41.412;2.164;2023-05-07T01:39:56;4.30;;;3.70;;
47153;SDS011;32907;41.412;2.164;2023-05-07T01:42:25;4.13;;;3.33;;
47153;SDS011;32907;41.412;2.164;2023-05-07T01:44:54;5.63;;;4.18;;
47153;SDS011;32907;41.412;2.164;2023-05-07T01:47:22;6.57;;;4.35;;
47153;SDS011;32907;41.412;2.164;2023-05-07T01:49:51;6.57;;;4.10;;
47153;SDS011;32907;41.412;2.164;2023-05-07T01:52:20;5.05;;;4.00;;
47153;SDS011;32907;41.412;2.164;2023-05-07T01:54:51;6.25;;;3.75;;
47153;SDS011;32907;41.412;2.164;2023-05-07T01:57:20;6.30;;;3.90;;
47153;SDS011;32907;41.412;2.164;2023-05-07T01:59:48;5.20;;;3.72;;
47153;SDS011;32907;41.412;2.164;2023-05-07T02:02:16;4.80;;;2.90;;
47153;SDS011;32907;41.412;2.164;2023-05-07T02:04:44;4.88;;;3.00;;
47153;SDS011;32907;41.412;2.164;2023-05-07T02:07:16;4.45;;;3.22;;
47153;SDS011;32907;41.412;2.164;2023-05-07T02:09:50;5.75;;;2.88;;
47153;SDS011;32907;41.412;2.164;2023-05-07T02:12:22;5.57;;;2.75;;
47153;SDS011;32907;41.412;2.164;2023-05-07T02:14:50;4.80;;;3.13;;
47153;SDS011;32907;41.412;2.164;2023-05-07T02:17:20;4.30;;;2.78;;
47153;SDS011;32907;41.412;2.164;2023-05-07T02:19:49;4.32;;;3.13;;
47153;SDS011;32907;41.412;2.164;2023-05-07T02:22:22;5.20;;;3.13;;
47153;SDS011;32907;41.412;2.164;2023-05-07T02:24:51;6.70;;;3.47;;
47153;SDS011;32907;41.412;2.164;2023-05-07T02:27:22;5.35;;;2.95;;
47153;SDS011;32907;41.412;2.164;2023-05-07T02:29:58;6.25;;;3.30;;
47153;SDS011;32907;41.412;2.164;2023-05-07T02:33:03;4.80;;;3.22;;
47153;SDS011;32907;41.412;2.164;2023-05-07T02:39:03;4.45;;;2.88;;
47153;SDS011;32907;41.412;2.164;2023-05-07T02:41:44;5.07;;;3.55;;
47153;SDS011;32907;41.412;2.164;2023-05-07T02:44:29;4.15;;;3.10;;
47153;SDS011;32907;41.412;2.164;2023-05-07T02:47:07;5.53;;;3.10;;
47153;SDS011;32907;41.412;2.164;2023-05-07T02:49:47;5.10;;;3.30;;
47153;SDS011;32907;41.412;2.164;2023-05-07T02:52:22;6.72;;;2.75;;
47153;SDS011;32907;41.412;2.164;2023-05-07T02:55:03;5.60;;;3.00;;
47153;SDS011;32907;41.412;2.164;2023-05-07T02:57:47;5.03;;;2.88;;
47153;SDS011;32907;41.412;2.164;2023-05-07T03:00:17;3.78;;;2.53;;
47153;SDS011;32907;41.412;2.164;2023-05-07T03:03:09;4.15;;;2.63;;
47153;SDS011;32907;41.412;2.164;2023-05-07T03:05:38;3.80;;;2.58;;
47153;SDS011;32907;41.412;2.164;2023-05-07T03:08:06;3.92;;;2.83;;
47153;SDS011;32907;41.412;2.164;2023-05-07T03:10:37;3.65;;;2.42;;
47153;SDS011;32907;41.412;2.164;2023-05-07T03:13:08;3.58;;;2.50;;
47153;SDS011;32907;41.412;2.164;2023-05-07T03:15:40;5.72;;;2.72;;
47153;SDS011;32907;41.412;2.164;2023-05-07T03:18:08;4.47;;;2.72;;
47153;SDS011;32907;41.412;2.164;2023-05-07T03:20:37;2.90;;;2.38;;
47153;SDS011;32907;41.412;2.164;2023-05-07T03:23:06;3.80;;;2.45;;
47153;SDS011;32907;41.412;2.164;2023-05-07T03:25:35;4.00;;;2.83;;
47153;SDS011;32907;41.412;2.164;2023-05-07T03:28:03;2.97;;;2.05;;
47153;SDS011;32907;41.412;2.164;2023-05-07T03:30:38;4.40;;;2.90;;
47153;SDS011;32907;41.412;2.164;2023-05-07T03:33:06;3.17;;;2.53;;
47153;SDS011;32907;41.412;2.164;2023-05-07T03:35:36;4.18;;;2.58;;
47153;SDS011;32907;41.412;2.164;2023-05-07T03:38:04;4.07;;;2.38;;
47153;SDS011;32907;41.412;2.164;2023-05-07T03:40:40;3.97;;;2.47;;
47153;SDS011;32907;41.412;2.164;2023-05-07T03:43:08;4.20;;;2.33;;
47153;SDS011;32907;41.412;2.164;2023-05-07T03:45:40;3.78;;;2.80;;
47153;SDS011;32907;41.412;2.164;2023-05-07T03:48:15;4.53;;;2.53;;
47153;SDS011;32907;41.412;2.164;2023-05-07T03:50:43;4.60;;;2.40;;
47153;SDS011;32907;41.412;2.164;2023-05-07T03:53:11;4.35;;;2.30;;
47153;SDS011;32907;41.412;2.164;2023-05-07T03:55:39;4.68;;;2.70;;
47153;SDS011;32907;41.412;2.164;2023-05-07T03:58:07;5.35;;;2.20;;
47153;SDS011;32907;41.412;2.164;2023-05-07T04:00:35;4.13;;;2.30;;
47153;SDS011;32907;41.412;2.164;2023-05-07T04:03:15;3.70;;;2.20;;
47153;SDS011;32907;41.412;2.164;2023-05-07T04:05:43;3.63;;;2.38;;
47153;SDS011;32907;41.412;2.164;2023-05-07T04:08:12;3.58;;;2.40;;
47153;SDS011;32907;41.412;2.164;2023-05-07T04:10:44;3.70;;;1.85;;
47153;SDS011;32907;41.412;2.164;2023-05-07T04:13:13;3.97;;;2.28;;
47153;SDS011;32907;41.412;2.164;2023-05-07T04:15:42;3.28;;;1.90;;
47153;SDS011;32907;41.412;2.164;2023-05-07T04:18:12;5.15;;;2.30;;
47153;SDS011;32907;41.412;2.164;2023-05-07T04:20:43;4.50;;;2.25;;
47153;SDS011;32907;41.412;2.164;2023-05-07T04:23:13;4.28;;;2.00;;
47153;SDS011;32907;41.412;2.164;2023-05-07T04:25:41;3.85;;;2.42;;
47153;SDS011;32907;41.412;2.164;2023-05-07T04:30:46;5.53;;;2.40;;
47153;SDS011;32907;41.412;2.164;2023-05-07T04:33:14;4.85;;;1.90;;
47153;SDS011;32907;41.412;2.164;2023-05-07T04:35:46;3.70;;;2.28;;
47153;SDS011;32907;41.412;2.164;2023-05-07T04:38:15;4.25;;;2.55;;
47153;SDS011;32907;41.412;2.164;2023-05-07T04:40:44;3.15;;;2.28;;
47153;SDS011;32907;41.412;2.164;2023-05-07T04:43:18;4.38;;;2.50;;
47153;SDS011;32907;41.412;2.164;2023-05-07T04:45:50;3.17;;;1.90;;
47153;SDS011;32907;41.412;2.164;2023-05-07T04:48:25;3.20;;;1.95;;
47153;SDS011;32907;41.412;2.164;2023-05-07T04:50:57;3.92;;;2.03;;
47153;SDS011;32907;41.412;2.164;2023-05-07T04:53:41;3.45;;;1.98;;
47153;SDS011;32907;41.412;2.164;2023-05-07T04:56:15;6.32;;;2.28;;
47153;SDS011;32907;41.412;2.164;2023-05-07T04:58:48;4.47;;;2.17;;
47153;SDS011;32907;41.412;2.164;2023-05-07T05:01:19;3.55;;;2.10;;
47153;SDS011;32907;41.412;2.164;2023-05-07T05:03:48;5.60;;;2.00;;
47153;SDS011;32907;41.412;2.164;2023-05-07T05:06:33;4.00;;;1.88;;
47153;SDS011;32907;41.412;2.164;2023-05-07T05:09:03;6.65;;;3.35;;
47153;SDS011;32907;41.412;2.164;2023-05-07T05:11:53;7.65;;;3.60;;
47153;SDS011;32907;41.412;2.164;2023-05-07T05:14:24;5.10;;;2.83;;
47153;SDS011;32907;41.412;2.164;2023-05-07T05:16:57;9.45;;;3.40;;
47153;SDS011;32907;41.412;2.164;2023-05-07T05:19:46;6.10;;;3.22;;
47153;SDS011;32907;41.412;2.164;2023-05-07T05:22:14;6.00;;;3.22;;
47153;SDS011;32907;41.412;2.164;2023-05-07T05:24:45;4.97;;;2.28;;
47153;SDS011;32907;41.412;2.164;2023-05-07T05:27:15;4.97;;;2.45;;
47153;SDS011;32907;41.412;2.164;2023-05-07T05:29:44;4.60;;;2.22;;
47153;SDS011;32907;41.412;2.164;2023-05-07T05:32:12;4.47;;;2.72;;
47153;SDS011;32907;41.412;2.164;2023-05-07T05:34:44;5.70;;;2.35;;
47153;SDS011;32907;41.412;2.164;2023-05-07T05:37:12;4.85;;;2.40;;
47153;SDS011;32907;41.412;2.164;2023-05-07T05:39:44;5.85;;;2.42;;
47153;SDS011;32907;41.412;2.164;2023-05-07T05:42:13;4.80;;;2.15;;
47153;SDS011;32907;41.412;2.164;2023-05-07T05:44:46;5.75;;;2.50;;
47153;SDS011;32907;41.412;2.164;2023-05-07T05:47:14;5.80;;;2.58;;
47153;SDS011;32907;41.412;2.164;2023-05-07T05:49:44;4.88;;;2.65;;
47153;SDS011;32907;41.412;2.164;2023-05-07T05:52:15;8.25;;;2.55;;
47153;SDS011;32907;41.412;2.164;2023-05-07T05:54:44;3.75;;;2.30;;
47153;SDS011;32907;41.412;2.164;2023-05-07T05:57:19;5.88;;;2.38;;
47153;SDS011;32907;41.412;2.164;2023-05-07T05:59:50;4.60;;;2.05;;
47153;SDS011;32907;41.412;2.164;2023-05-07T06:02:19;4.22;;;2.13;;
47153;SDS011;32907;41.412;2.164;2023-05-07T06:04:47;3.80;;;2.08;;
47153;SDS011;32907;41.412;2.164;2023-05-07T06:07:19;4.03;;;2.03;;
47153;SDS011;32907;41.412;2.164;2023-05-07T06:09:50;5.18;;;2.47;;
47153;SDS011;32907;41.412;2.164;2023-05-07T06:12:20;3.50;;;1.83;;
47153;SDS011;32907;41.412;2.164;2023-05-07T06:14:49;5.13;;;2.08;;
47153;SDS011;32907;41.412;2.164;2023-05-07T06:17:20;4.72;;;1.80;;
47153;SDS011;32907;41.412;2.164;2023-05-07T06:19:49;7.82;;;2.47;;
47153;SDS011;32907;41.412;2.164;2023-05-07T06:22:20;4.32;;;1.95;;
47153;SDS011;32907;41.412;2.164;2023-05-07T06:24:49;6.25;;;2.42;;
47153;SDS011;32907;41.412;2.164;2023-05-07T06:27:17;6.30;;;2.47;;
47153;SDS011;32907;41.412;2.164;2023-05-07T06:29:48;5.60;;;2.08;;
47153;SDS011;32907;41.412;2.164;2023-05-07T06:32:17;4.47;;;2.05;;
47153;SDS011;32907;41.412;2.164;2023-05-07T06:34:46;8.40;;;2.38;;
47153;SDS011;32907;41.412;2.164;2023-05-07T06:37:15;36.97;;;4.47;;
47153;SDS011;32907;41.412;2.164;2023-05-07T06:39:53;5.15;;;1.75;;
47153;SDS011;32907;41.412;2.164;2023-05-07T06:42:26;4.95;;;1.92;;
47153;SDS011;32907;41.412;2.164;2023-05-07T06:44:58;4.35;;;2.08;;
47153;SDS011;32907;41.412;2.164;2023-05-07T06:47:30;4.97;;;2.67;;
47153;SDS011;32907;41.412;2.164;2023-05-07T06:49:58;4.78;;;2.40;;
47153;SDS011;32907;41.412;2.164;2023-05-07T06:52:30;4.63;;;2.10;;
47153;SDS011;32907;41.412;2.164;2023-05-07T06:54:58;4.07;;;1.92;;
47153;SDS011;32907;41.412;2.164;2023-05-07T06:57:26;5.28;;;2.15;;
47153;SDS011;32907;41.412;2.164;2023-05-07T06:59:56;7.93;;;2.05;;
47153;SDS011;32907;41.412;2.164;2023-05-07T07:02:25;4.10;;;2.05;;
47153;SDS011;32907;41.412;2.164;2023-05-07T07:04:54;6.03;;;2.47;;
47153;SDS011;32907;41.412;2.164;2023-05-07T07:07:22;3.33;;;1.85;;
47153;SDS011;32907;41.412;2.164;2023-05-07T07:09:50;8.93;;;2.30;;
47153;SDS011;32907;41.412;2.164;2023-05-07T07:12:19;3.72;;;2.08;;
47153;SDS011;32907;41.412;2.164;2023-05-07T07:14:47;5.70;;;2.50;;
47153;SDS011;32907;41.412;2.164;2023-05-07T07:17:15;4.78;;;2.45;;
47153;SDS011;32907;41.412;2.164;2023-05-07T07:19:44;3.85;;;2.15;;
47153;SDS011;32907;41.412;2.164;2023-05-07T07:22:12;4.75;;;2.60;;
47153;SDS011;32907;41.412;2.164;2023-05-07T07:24:40;3.72;;;2.50;;
47153;SDS011;32907;41.412;2.164;2023-05-07T07:27:10;4.30;;;2.15;;
47153;SDS011;32907;41.412;2.164;2023-05-07T07:29:39;4.35;;;2.38;;
47153;SDS011;32907;41.412;2.164;2023-05-07T07:32:07;7.93;;;3.25;;
47153;SDS011;32907;41.412;2.164;2023-05-07T07:34:35;7.97;;;4.18;;
47153;SDS011;32907;41.412;2.164;2023-05-07T07:37:03;5.22;;;3.30;;
47153;SDS011;32907;41.412;2.164;2023-05-07T07:39:34;6.03;;;3.50;;
47153;SDS011;32907;41.412;2.164;2023-05-07T07:42:07;7.75;;;3.00;;
47153;SDS011;32907;41.412;2.164;2023-05-07T07:44:35;3.63;;;2.38;;
47153;SDS011;32907;41.412;2.164;2023-05-07T07:47:07;3.83;;;2.40;;
47153;SDS011;32907;41.412;2.164;2023-05-07T07:49:35;4.45;;;2.50;;
47153;SDS011;32907;41.412;2.164;2023-05-07T07:52:06;5.45;;;2.60;;
47153;SDS011;32907;41.412;2.164;2023-05-07T07:54:36;6.38;;;3.53;;
47153;SDS011;32907;41.412;2.164;2023-05-07T07:57:06;5.78;;;2.72;;
47153;SDS011;32907;41.412;2.164;2023-05-07T07:59:35;5.15;;;2.97;;
47153;SDS011;32907;41.412;2.164;2023-05-07T08:02:03;4.25;;;2.58;;
47153;SDS011;32907;41.412;2.164;2023-05-07T08:04:32;6.55;;;2.20;;
47153;SDS011;32907;41.412;2.164;2023-05-07T08:07:04;7.38;;;2.97;;
47153;SDS011;32907;41.412;2.164;2023-05-07T08:09:39;9.50;;;3.70;;
47153;SDS011;32907;41.412;2.164;2023-05-07T08:12:08;6.43;;;4.28;;
47153;SDS011;32907;41.412;2.164;2023-05-07T08:14:38;6.53;;;4.50;;
47153;SDS011;32907;41.412;2.164;2023-05-07T08:17:07;6.60;;;4.07;;
47153;SDS011;32907;41.412;2.164;2023-05-07T08:19:37;9.05;;;4.88;;
47153;SDS011;32907;41.412;2.164;2023-05-07T08:22:10;9.30;;;6.32;;
47153;SDS011;32907;41.412;2.164;2023-05-07T08:24:39;10.02;;;6.80;;
47153;SDS011;32907;41.412;2.164;2023-05-07T08:27:09;12.02;;;9.02;;
47153;SDS011;32907;41.412;2.164;2023-05-07T08:29:40;11.45;;;9.82;;
47153;SDS011;32907;41.412;2.164;2023-05-07T08:32:09;15.13;;;9.77;;
47153;SDS011;32907;41.412;2.164;2023-05-07T08:37:30;10.90;;;8.30;;
47153;SDS011;32907;41.412;2.164;2023-05-07T08:39:59;11.73;;;7.70;;
47153;SDS011;32907;41.412;2.164;2023-05-07T08:42:32;12.10;;;7.35;;
47153;SDS011;32907;41.412;2.164;2023-05-07T08:45:05;11.23;;;6.97;;
47153;SDS011;32907;41.412;2.164;2023-05-07T08:47:46;10.60;;;7.97;;
47153;SDS011;32907;41.412;2.164;2023-05-07T08:50:19;9.30;;;7.30;;
47153;SDS011;32907;41.412;2.164;2023-05-07T08:52:50;12.45;;;8.30;;
47153;SDS011;32907;41.412;2.164;2023-05-07T08:55:20;12.75;;;9.60;;
47153;SDS011;32907;41.412;2.164;2023-05-07T08:57:50;11.88;;;8.68;;
47153;SDS011;32907;41.412;2.164;2023-05-07T09:00:20;11.38;;;8.00;;
47153;SDS011;32907;41.412;2.164;2023-05-07T09:02:52;10.95;;;7.85;;
47153;SDS011;32907;41.412;2.164;2023-05-07T09:05:23;12.68;;;7.85;;
47153;SDS011;32907;41.412;2.164;2023-05-07T09:07:51;11.45;;;7.45;;
47153;SDS011;32907;41.412;2.164;2023-05-07T09:10:23;13.85;;;8.27;;
47153;SDS011;32907;41.412;2.164;2023-05-07T09:12:52;11.52;;;8.30;;
47153;SDS011;32907;41.412;2.164;2023-05-07T09:15:22;11.52;;;8.80;;
47153;SDS011;32907;41.412;2.164;2023-05-07T09:17:50;14.80;;;9.70;;
47153;SDS011;32907;41.412;2.164;2023-05-07T09:20:18;12.63;;;8.38;;
47153;SDS011;32907;41.412;2.164;2023-05-07T09:22:48;11.57;;;7.38;;
47153;SDS011;32907;41.412;2.164;2023-05-07T09:25:27;9.15;;;5.57;;
47153;SDS011;32907;41.412;2.164;2023-05-07T09:27:57;8.30;;;4.55;;
47153;SDS011;32907;41.412;2.164;2023-05-07T09:30:28;4.90;;;3.00;;
47153;SDS011;32907;41.412;2.164;2023-05-07T09:33:01;7.53;;;3.65;;
47153;SDS011;32907;41.412;2.164;2023-05-07T09:35:33;7.13;;;3.10;;
47153;SDS011;32907;41.412;2.164;2023-05-07T09:38:06;5.30;;;2.85;;
47153;SDS011;32907;41.412;2.164;2023-05-07T09:40:37;4.50;;;2.70;;
47153;SDS011;32907;41.412;2.164;2023-05-07T09:43:10;7.93;;;3.17;;
47153;SDS011;32907;41.412;2.164;2023-05-07T09:45:50;3.55;;;2.58;;
47153;SDS011;32907;41.412;2.164;2023-05-07T09:48:23;5.88;;;2.92;;
47153;SDS011;32907;41.412;2.164;2023-05-07T09:50:55;5.25;;;2.55;;
47153;SDS011;32907;41.412;2.164;2023-05-07T09:53:30;3.50;;;2.20;;
47153;SDS011;32907;41.412;2.164;2023-05-07T09:56:01;4.10;;;2.58;;
47153;SDS011;32907;41.412;2.164;2023-05-07T09:58:32;5.35;;;2.85;;
47153;SDS011;32907;41.412;2.164;2023-05-07T10:01:04;4.63;;;2.80;;
47153;SDS011;32907;41.412;2.164;2023-05-07T10:03:34;4.60;;;2.60;;
47153;SDS011;32907;41.412;2.164;2023-05-07T10:06:05;6.47;;;2.63;;
47153;SDS011;32907;41.412;2.164;2023-05-07T10:08:36;3.83;;;2.47;;
47153;SDS011;32907;41.412;2.164;2023-05-07T10:11:08;6.15;;;3.00;;
47153;SDS011;32907;41.412;2.164;2023-05-07T10:13:38;9.63;;;3.67;;
47153;SDS011;32907;41.412;2.164;2023-05-07T10:16:09;4.30;;;2.90;;
47153;SDS011;32907;41.412;2.164;2023-05-07T10:18:45;4.88;;;2.90;;
47153;SDS011;32907;41.412;2.164;2023-05-07T10:21:19;14.63;;;9.68;;
47153;SDS011;32907;41.412;2.164;2023-05-07T10:23:51;14.55;;;9.52;;
47153;SDS011;32907;41.412;2.164;2023-05-07T10:26:27;17.65;;;12.73;;
47153;SDS011;32907;41.412;2.164;2023-05-07T10:28:58;29.27;;;20.23;;
47153;SDS011;32907;41.412;2.164;2023-05-07T10:34:03;23.73;;;15.38;;
47153;SDS011;32907;41.412;2.164;2023-05-07T10:36:38;25.65;;;14.68;;
47153;SDS011;32907;41.412;2.164;2023-05-07T10:39:08;19.13;;;14.00;;
47153;SDS011;32907;41.412;2.164;2023-05-07T10:41:38;27.92;;;18.33;;
47153;SDS011;32907;41.412;2.164;2023-05-07T10:44:10;26.85;;;19.83;;
47153;SDS011;32907;41.412;2.164;2023-05-07T10:46:39;24.50;;;17.92;;
47153;SDS011;32907;41.412;2.164;2023-05-07T10:49:20;22.15;;;16.98;;
47153;SDS011;32907;41.412;2.164;2023-05-07T10:57:44;20.98;;;15.77;;
47153;SDS011;32907;41.412;2.164;2023-05-07T11:03:10;14.52;;;11.85;;
47153;SDS011;32907;41.412;2.164;2023-05-07T11:05:48;15.70;;;11.10;;
47153;SDS011;32907;41.412;2.164;2023-05-07T11:08:52;12.38;;;8.98;;
47153;SDS011;32907;41.412;2.164;2023-05-07T11:17:15;12.50;;;8.90;;
47153;SDS011;32907;41.412;2.164;2023-05-07T11:19:51;11.95;;;8.85;;
47153;SDS011;32907;41.412;2.164;2023-05-07T11:22:38;12.98;;;9.23;;
47153;SDS011;32907;41.412;2.164;2023-05-07T11:25:26;13.10;;;9.73;;
47153;SDS011;32907;41.412;2.164;2023-05-07T11:28:06;11.18;;;8.73;;
47153;SDS011;32907;41.412;2.164;2023-05-07T11:30:44;16.27;;;8.57;;
47153;SDS011;32907;41.412;2.164;2023-05-07T11:33:17;13.10;;;7.93;;
47153;SDS011;32907;41.412;2.164;2023-05-07T11:35:49;11.55;;;8.50;;
47153;SDS011;32907;41.412;2.164;2023-05-07T11:38:20;8.63;;;7.22;;
47153;SDS011;32907;41.412;2.164;2023-05-07T11:40:52;8.98;;;7.85;;
47153;SDS011;32907;41.412;2.164;2023-05-07T11:43:23;8.40;;;6.70;;
47153;SDS011;32907;41.412;2.164;2023-05-07T11:45:51;8.63;;;6.45;;
47153;SDS011;32907;41.412;2.164;2023-05-07T11:48:20;16.13;;;8.43;;
47153;SDS011;32907;41.412;2.164;2023-05-07T11:50:54;11.05;;;7.95;;
47153;SDS011;32907;41.412;2.164;2023-05-07T11:53:34;31.73;;;21.13;;
47153;SDS011;32907;41.412;2.164;2023-05-07T11:56:07;33.88;;;21.33;;
47153;SDS011;32907;41.412;2.164;2023-05-07T11:58:42;40.55;;;24.45;;
47153;SDS011;32907;41.412;2.164;2023-05-07T12:01:12;40.22;;;23.35;;
47153;SDS011;32907;41.412;2.164;2023-05-07T12:03:41;30.02;;;19.70;;
47153;SDS011;32907;41.412;2.164;2023-05-07T12:06:12;23.98;;;15.52;;
47153;SDS011;32907;41.412;2.164;2023-05-07T12:08:42;20.60;;;12.65;;
47153;SDS011;32907;41.412;2.164;2023-05-07T12:11:15;16.40;;;10.82;;
47153;SDS011;32907;41.412;2.164;2023-05-07T12:13:49;15.20;;;11.05;;
47153;SDS011;32907;41.412;2.164;2023-05-07T12:16:17;16.42;;;11.20;;
47153;SDS011;32907;41.412;2.164;2023-05-07T12:18:46;14.27;;;10.93;;
47153;SDS011;32907;41.412;2.164;2023-05-07T12:21:15;14.55;;;10.52;;
47153;SDS011;32907;41.412;2.164;2023-05-07T12:23:44;14.98;;;11.43;;
47153;SDS011;32907;41.412;2.164;2023-05-07T12:26:12;13.98;;;9.48;;
47153;SDS011;32907;41.412;2.164;2023-05-07T12:28:42;11.57;;;8.70;;
47153;SDS011;32907;41.412;2.164;2023-05-07T12:31:10;11.05;;;8.23;;
47153;SDS011;32907;41.412;2.164;2023-05-07T12:33:38;9.60;;;7.45;;
47153;SDS011;32907;41.412;2.164;2023-05-07T12:36:07;11.45;;;7.20;;
47153;SDS011;32907;41.412;2.164;2023-05-07T12:38:36;9.32;;;6.47;;
47153;SDS011;32907;41.412;2.164;2023-05-07T12:41:05;8.68;;;5.68;;
47153;SDS011;32907;41.412;2.164;2023-05-07T12:43:35;7.93;;;5.43;;
47153;SDS011;32907;41.412;2.164;2023-05-07T12:46:05;11.65;;;5.22;;
47153;SDS011;32907;41.412;2.164;2023-05-07T12:48:36;8.38;;;4.70;;
47153;SDS011;32907;41.412;2.164;2023-05-07T12:51:05;6.53;;;4.40;;
47153;SDS011;32907;41.412;2.164;2023-05-07T12:53:39;5.82;;;3.83;;
47153;SDS011;32907;41.412;2.164;2023-05-07T12:56:07;5.50;;;3.67;;
47153;SDS011;32907;41.412;2.164;2023-05-07T12:58:36;7.13;;;3.90;;
47153;SDS011;32907;41.412;2.164;2023-05-07T13:01:06;5.35;;;3.72;;
47153;SDS011;32907;41.412;2.164;2023-05-07T13:03:37;5.63;;;3.53;;
47153;SDS011;32907;41.412;2.164;2023-05-07T13:06:08;6.20;;;3.40;;
47153;SDS011;32907;41.412;2.164;2023-05-07T13:08:38;7.63;;;3.50;;
47153;SDS011;32907;41.412;2.164;2023-05-07T13:11:12;4.78;;;3.55;;
47153;SDS011;32907;41.412;2.164;2023-05-07T13:13:40;7.63;;;3.50;;
47153;SDS011;32907;41.412;2.164;2023-05-07T13:16:09;5.60;;;3.40;;
47153;SDS011;32907;41.412;2.164;2023-05-07T13:18:39;6.18;;;3.20;;
47153;SDS011;32907;41.412;2.164;2023-05-07T13:21:08;4.07;;;3.20;;
47153;SDS011;32907;41.412;2.164;2023-05-07T13:23:37;4.53;;;2.97;;
47153;SDS011;32907;41.412;2.164;2023-05-07T13:26:06;4.32;;;3.00;;
47153;SDS011;32907;41.412;2.164;2023-05-07T13:28:53;6.53;;;3.33;;
47153;SDS011;32907;41.412;2.164;2023-05-07T13:31:21;5.22;;;3.30;;
47153;SDS011;32907;41.412;2.164;2023-05-07T13:33:49;7.45;;;3.45;;
47153;SDS011;32907;41.412;2.164;2023-05-07T13:36:17;4.25;;;3.00;;
47153;SDS011;32907;41.412;2.164;2023-05-07T13:38:46;5.07;;;3.33;;
47153;SDS011;32907;41.412;2.164;2023-05-07T13:41:14;3.78;;;2.90;;
47153;SDS011;32907;41.412;2.164;2023-05-07T13:43:42;3.63;;;2.53;;
47153;SDS011;32907;41.412;2.164;2023-05-07T13:46:10;4.65;;;2.60;;
47153;SDS011;32907;41.412;2.164;2023-05-07T13:48:40;5.15;;;2.65;;
47153;SDS011;32907;41.412;2.164;2023-05-07T13:51:08;3.83;;;2.50;;
47153;SDS011;32907;41.412;2.164;2023-05-07T13:53:35;4.68;;;2.05;;
47153;SDS011;32907;41.412;2.164;2023-05-07T13:56:03;5.55;;;1.95;;
47153;SDS011;32907;41.412;2.164;2023-05-07T13:58:35;6.93;;;2.20;;
47153;SDS011;32907;41.412;2.164;2023-05-07T14:01:12;5.00;;;2.20;;
47153;SDS011;32907;41.412;2.164;2023-05-07T14:03:40;3.80;;;2.20;;
47153;SDS011;32907;41.412;2.164;2023-05-07T14:06:08;4.55;;;2.33;;
47153;SDS011;32907;41.412;2.164;2023-05-07T14:08:36;2.63;;;1.92;;
47153;SDS011;32907;41.412;2.164;2023-05-07T14:11:04;3.47;;;1.90;;
47153;SDS011;32907;41.412;2.164;2023-05-07T14:13:34;3.95;;;1.70;;
47153;SDS011;32907;41.412;2.164;2023-05-07T14:16:04;3.58;;;1.70;;
47153;SDS011;32907;41.412;2.164;2023-05-07T14:18:33;3.70;;;1.30;;
47153;SDS011;32907;41.412;2.164;2023-05-07T14:21:04;4.43;;;1.50;;
47153;SDS011;32907;41.412;2.164;2023-05-07T14:23:34;3.40;;;1.52;;
47153;SDS011;32907;41.412;2.164;2023-05-07T14:26:02;3.40;;;1.67;;
47153;SDS011;32907;41.412;2.164;2023-05-07T14:28:30;3.83;;;1.60;;
47153;SDS011;32907;41.412;2.164;2023-05-07T14:30:59;3.70;;;1.70;;
47153;SDS011;32907;41.412;2.164;2023-05-07T14:33:27;5.25;;;1.50;;
47153;SDS011;32907;41.412;2.164;2023-05-07T14:35:55;2.67;;;1.63;;
47153;SDS011;32907;41.412;2.164;2023-05-07T14:38:23;3.92;;;1.83;;
47153;SDS011;32907;41.412;2.164;2023-05-07T14:40:50;3.88;;;2.10;;
47153;SDS011;32907;41.412;2.164;2023-05-07T14:43:19;3.63;;;1.83;;
47153;SDS011;32907;41.412;2.164;2023-05-07T14:45:49;4.28;;;2.05;;
47153;SDS011;32907;41.412;2.164;2023-05-07T14:48:17;4.35;;;2.10;;
47153;SDS011;32907;41.412;2.164;2023-05-07T14:50:47;3.85;;;2.40;;
47153;SDS011;32907;41.412;2.164;2023-05-07T14:53:15;3.78;;;2.63;;
47153;SDS011;32907;41.412;2.164;2023-05-07T14:55:44;4.95;;;2.30;;
47153;SDS011;32907;41.412;2.164;2023-05-07T14:58:13;3.72;;;2.40;;
47153;SDS011;32907;41.412;2.164;2023-05-07T15:00:41;3.78;;;1.98;;
47153;SDS011;32907;41.412;2.164;2023-05-07T15:03:10;3.35;;;2.10;;
47153;SDS011;32907;41.412;2.164;2023-05-07T15:05:41;3.05;;;2.10;;
47153;SDS011;32907;41.412;2.164;2023-05-07T15:08:09;4.05;;;2.08;;
47153;SDS011;32907;41.412;2.164;2023-05-07T15:10:37;3.80;;;2.20;;
47153;SDS011;32907;41.412;2.164;2023-05-07T15:13:09;4.85;;;2.85;;
47153;SDS011;32907;41.412;2.164;2023-05-07T15:15:42;3.58;;;1.98;;
47153;SDS011;32907;41.412;2.164;2023-05-07T15:18:15;2.40;;;1.63;;
47153;SDS011;32907;41.412;2.164;2023-05-07T15:20:45;4.45;;;1.80;;
47153;SDS011;32907;41.412;2.164;2023-05-07T15:23:13;3.03;;;1.50;;
47153;SDS011;32907;41.412;2.164;2023-05-07T15:25:46;3.15;;;1.55;;
47153;SDS011;32907;41.412;2.164;2023-05-07T15:28:19;4.18;;;1.50;;
47153;SDS011;32907;41.412;2.164;2023-05-07T15:30:46;3.95;;;1.50;;
47153;SDS011;32907;41.412;2.164;2023-05-07T15:33:14;4.70;;;1.73;;
47153;SDS011;32907;41.412;2.164;2023-05-07T15:35:42;3.47;;;1.70;;